Time;durP1;ratioP1;P1;durP2;ratioP2;P2;SDS_P1;SDS_P2;PMS_P1;PMS_P2;Temp;Humidity;BMP_temperature;BMP_pressure;BME280_temperature;BME280_humidity;BME280_pressure;Samples;Min_cycle;Max_cycle;Signal;HPM_P1;HPM_P2
2021/03/26 00:01:23;;;;;;;9.55;6.53;;;8.80;99.90;;;;;;5066134;28;20740;-81
2021/03/26 00:03:51;;;;;;;17.30;4.57;;;8.80;99.90;;;;;;5066880;28;20677;-79
2021/03/26 00:06:21;;;;;;;2.45;2.35;;;8.80;99.90;;;;;;5066492;28;20199;-80
2021/03/26 00:08:48;;;;;;;8.18;3.20;;;8.80;99.90;;;;;;5065728;28;20187;-80
2021/03/26 00:11:15;;;;;;;4.90;4.50;;;8.70;99.90;;;;;;5066848;28;20600;-80
2021/03/26 00:13:42;;;;;;;4.20;2.05;;;8.70;99.90;;;;;;5060831;28;20218;-80
2021/03/26 00:16:10;;;;;;;1.98;1.73;;;8.70;99.90;;;;;;5057274;28;20262;-80
2021/03/26 00:18:37;;;;;;;3.78;2.80;;;8.70;99.90;;;;;;5061937;28;20241;-79
2021/03/26 00:21:03;;;;;;;3.08;2.63;;;8.70;99.90;;;;;;5063383;28;20258;-78
2021/03/26 00:23:31;;;;;;;5.88;5.45;;;8.60;99.90;;;;;;5057485;28;20835;-78
2021/03/26 00:25:57;;;;;;;5.15;4.43;;;8.70;99.90;;;;;;5058133;28;20202;-78
2021/03/26 00:28:23;;;;;;;1.50;1.20;;;8.70;99.90;;;;;;5058248;28;20199;-78
2021/03/26 00:30:50;;;;;;;3.92;1.70;;;8.70;99.90;;;;;;5057931;28;20223;-76
2021/03/26 00:33:16;;;;;;;1.80;1.10;;;8.60;99.90;;;;;;5057459;28;20635;-79
2021/03/26 00:35:42;;;;;;;4.80;4.40;;;8.60;99.90;;;;;;5058271;28;20217;-77
2021/03/26 00:38:19;;;;;;;2.00;1.90;;;8.60;99.90;;;;;;5056671;28;20210;-77
2021/03/26 00:40:47;;;;;;;0.57;0.57;;;8.60;99.90;;;;;;5055048;28;20191;-75
2021/03/26 00:43:13;;;;;;;14.25;5.38;;;8.60;99.90;;;;;;5058195;28;20230;-77
2021/03/26 00:45:40;;;;;;;1.67;1.58;;;8.60;99.90;;;;;;5060395;28;20198;-76
2021/03/26 00:48:07;;;;;;;2.25;1.10;;;8.60;99.90;;;;;;5058069;28;20664;-77
2021/03/26 00:50:36;;;;;;;9.60;6.30;;;8.50;99.90;;;;;;5059298;28;20214;-78
2021/03/26 00:53:07;;;;;;;12.48;3.80;;;8.60;99.90;;;;;;5058320;28;20246;-78
2021/03/26 00:55:33;;;;;;;1.02;1.02;;;8.60;99.90;;;;;;5059332;28;20214;-77
2021/03/26 00:58:01;;;;;;;2.50;2.38;;;8.60;99.90;;;;;;5058033;28;20217;-78
2021/03/26 01:00:30;;;;;;;7.85;1.35;;;8.60;99.90;;;;;;5059377;28;20202;-78
2021/03/26 01:02:57;;;;;;;6.75;4.97;;;8.50;99.90;;;;;;5059486;28;20222;-78
2021/03/26 01:05:25;;;;;;;2.30;1.95;;;8.50;99.90;;;;;;5060380;28;20210;-78
2021/03/26 01:07:52;;;;;;;0.50;0.40;;;8.40;99.90;;;;;;5058710;28;20202;-78
2021/03/26 01:10:21;;;;;;;0.50;0.40;;;8.40;99.90;;;;;;5060698;28;20240;-79
2021/03/26 01:12:48;;;;;;;0.77;0.77;;;8.40;99.90;;;;;;5059451;28;20233;-78
2021/03/26 01:15:17;;;;;;;2.15;1.63;;;8.40;99.90;;;;;;5059783;28;20195;-78
2021/03/26 01:17:44;;;;;;;4.40;2.67;;;8.30;99.90;;;;;;5058918;28;20248;-77
2021/03/26 01:20:14;;;;;;;0.93;0.93;;;8.30;99.90;;;;;;5059701;28;20187;-78
2021/03/26 01:22:40;;;;;;;3.63;2.92;;;8.30;99.90;;;;;;5059232;28;20214;-78
2021/03/26 01:25:09;;;;;;;0.50;0.40;;;8.20;99.90;;;;;;5059135;28;20191;-78
2021/03/26 01:27:36;;;;;;;0.50;0.50;;;8.30;99.90;;;;;;5058454;28;20260;-78
2021/03/26 01:30:08;;;;;;;1.20;1.00;;;8.20;99.90;;;;;;5059336;28;20215;-77
2021/03/26 01:32:35;;;;;;;0.70;0.68;;;8.20;99.90;;;;;;5059961;28;20222;-77
2021/03/26 01:35:02;;;;;;;2.05;1.95;;;8.10;99.90;;;;;;5060663;28;20691;-78
2021/03/26 01:37:28;;;;;;;2.05;1.85;;;8.10;99.90;;;;;;5057965;28;20233;-78
2021/03/26 01:39:54;;;;;;;0.50;0.50;;;8.20;99.90;;;;;;5057947;28;20191;-78
2021/03/26 01:42:23;;;;;;;1.35;1.35;;;8.20;99.90;;;;;;5059645;28;20581;-79
2021/03/26 01:44:49;;;;;;;2.35;1.40;;;8.10;99.90;;;;;;5059514;28;20195;-78
2021/03/26 01:47:15;;;;;;;6.93;4.32;;;8.20;99.90;;;;;;5058964;28;20205;-78
2021/03/26 01:49:43;;;;;;;6.50;4.72;;;8.20;99.90;;;;;;5059376;28;20219;-78
2021/03/26 01:52:09;;;;;;;9.40;2.40;;;8.10;99.90;;;;;;5059441;28;20222;-79
2021/03/26 01:54:35;;;;;;;2.30;2.20;;;8.10;99.90;;;;;;5058860;28;20682;-78
2021/03/26 01:57:02;;;;;;;2.70;2.50;;;8.10;99.90;;;;;;5057425;28;20691;-78
2021/03/26 01:59:28;;;;;;;0.50;0.40;;;8.10;99.90;;;;;;5059465;28;20191;-78
2021/03/26 02:01:58;;;;;;;0.52;0.52;;;8.10;99.90;;;;;;5059368;28;20215;-79
2021/03/26 02:04:30;;;;;;;1.50;1.40;;;8.00;99.90;;;;;;5060697;28;20197;-78
2021/03/26 02:06:58;;;;;;;0.70;0.70;;;8.00;99.90;;;;;;5058397;28;20191;-78
2021/03/26 02:09:33;;;;;;;4.55;4.18;;;8.00;99.90;;;;;;5059107;28;20267;-78
2021/03/26 02:12:04;;;;;;;4.43;1.83;;;7.90;99.90;;;;;;5059137;28;20218;-79
2021/03/26 02:14:34;;;;;;;1.10;1.00;;;7.90;99.90;;;;;;5059097;28;20195;-79
2021/03/26 02:17:01;;;;;;;3.72;2.00;;;7.90;99.90;;;;;;5057745;28;20931;-78
2021/03/26 02:19:33;;;;;;;1.83;1.60;;;7.90;99.90;;;;;;5058777;28;20206;-79
2021/03/26 02:22:00;;;;;;;0.85;0.60;;;7.80;99.90;;;;;;5059554;28;20232;-78
2021/03/26 02:24:28;;;;;;;2.22;2.13;;;7.80;99.90;;;;;;5051091;28;20191;-79
2021/03/26 02:27:02;;;;;;;3.00;2.80;;;7.80;99.90;;;;;;5059514;28;20206;-78
2021/03/26 02:29:31;;;;;;;2.65;1.60;;;7.80;99.90;;;;;;5059606;28;20182;-77
2021/03/26 02:32:01;;;;;;;4.63;4.43;;;7.80;99.90;;;;;;5059497;28;20301;-77
2021/03/26 02:34:28;;;;;;;0.55;0.40;;;7.70;99.90;;;;;;5059664;28;20210;-78
2021/03/26 02:36:57;;;;;;;0.50;0.40;;;7.60;99.90;;;;;;5059181;28;20217;-78
2021/03/26 02:39:33;;;;;;;0.68;0.68;;;7.60;99.90;;;;;;5059247;28;20194;-78
2021/03/26 02:42:03;;;;;;;0.57;0.55;;;7.60;99.90;;;;;;5059817;28;20214;-78
2021/03/26 02:44:40;;;;;;;0.50;0.40;;;7.50;99.90;;;;;;5060904;28;20205;-79
2021/03/26 02:47:23;;;;;;;0.50;0.40;;;7.50;99.90;;;;;;5059786;28;20179;-78
2021/03/26 02:49:56;;;;;;;3.88;1.38;;;7.40;99.90;;;;;;5060737;28;20218;-78
2021/03/26 02:52:30;;;;;;;0.57;0.55;;;7.40;99.90;;;;;;5057590;28;20898;-78
2021/03/26 02:55:05;;;;;;;1.25;1.08;;;7.40;99.90;;;;;;5060163;28;20243;-78
2021/03/26 02:57:35;;;;;;;0.50;0.40;;;7.30;99.90;;;;;;5059150;28;20194;-79
2021/03/26 03:00:08;;;;;;;1.13;1.13;;;7.30;99.90;;;;;;5061094;28;20179;-79
2021/03/26 03:02:36;;;;;;;0.50;0.40;;;7.30;99.90;;;;;;5060509;28;20770;-78
2021/03/26 03:05:09;;;;;;;0.50;0.40;;;7.20;99.90;;;;;;5063356;28;20198;-78
2021/03/26 03:07:39;;;;;;;4.95;1.35;;;7.20;99.90;;;;;;5064147;28;20184;-79
2021/03/26 03:10:21;;;;;;;3.70;3.13;;;7.20;99.90;;;;;;5065324;28;20694;-78
2021/03/26 03:12:51;;;;;;;0.50;0.40;;;7.20;99.90;;;;;;5064113;28;20742;-78
2021/03/26 03:15:21;;;;;;;0.90;0.80;;;7.30;99.90;;;;;;5065693;28;20282;-79
2021/03/26 03:17:54;;;;;;;1.88;0.93;;;7.20;99.90;;;;;;5063938;28;20227;-79
2021/03/26 03:20:26;;;;;;;5.28;1.98;;;7.20;99.90;;;;;;5063523;28;20221;-79
2021/03/26 03:22:57;;;;;;;0.50;0.40;;;7.20;99.90;;;;;;5063905;28;20720;-78
2021/03/26 03:25:26;;;;;;;1.35;1.25;;;7.20;99.90;;;;;;5063956;28;20195;-78
2021/03/26 03:28:03;;;;;;;1.85;1.75;;;7.20;99.90;;;;;;5062653;28;20217;-77
2021/03/26 03:30:41;;;;;;;0.50;0.40;;;7.20;99.90;;;;;;5064534;28;20241;-78
2021/03/26 03:33:13;;;;;;;0.50;0.40;;;7.10;99.90;;;;;;5063935;28;20214;-78
2021/03/26 03:35:46;;;;;;;0.98;0.98;;;7.00;99.90;;;;;;5064397;28;20179;-77
2021/03/26 03:38:23;;;;;;;0.50;0.40;;;7.00;99.90;;;;;;5064479;28;20199;-77
2021/03/26 03:40:57;;;;;;;0.50;0.40;;;7.00;99.90;;;;;;5062557;28;20174;-78
2021/03/26 03:43:32;;;;;;;1.40;1.30;;;7.00;99.90;;;;;;5064421;28;20240;-78
2021/03/26 03:46:02;;;;;;;3.08;2.45;;;7.00;99.90;;;;;;5064120;28;20186;-78
2021/03/26 03:48:36;;;;;;;0.50;0.40;;;7.00;99.90;;;;;;5061632;28;20533;-78
2021/03/26 03:51:06;;;;;;;0.50;0.40;;;7.00;99.90;;;;;;5061495;28;20218;-80
2021/03/26 03:53:38;;;;;;;0.50;0.40;;;7.00;99.90;;;;;;5063504;28;20215;-78
2021/03/26 03:56:13;;;;;;;0.60;0.57;;;6.90;99.90;;;;;;5063820;28;20187;-79
2021/03/26 03:58:43;;;;;;;0.50;0.40;;;6.80;99.90;;;;;;5063541;28;20198;-79
2021/03/26 04:01:14;;;;;;;0.50;0.40;;;6.80;99.90;;;;;;5065003;28;20294;-79
2021/03/26 04:03:47;;;;;;;0.50;0.40;;;6.90;99.90;;;;;;5064777;28;20580;-80
2021/03/26 04:06:21;;;;;;;0.70;0.70;;;6.90;99.90;;;;;;5063639;28;20187;-78
2021/03/26 04:08:53;;;;;;;0.82;0.82;;;6.90;99.90;;;;;;5064012;28;20187;-79
2021/03/26 04:11:24;;;;;;;0.50;0.40;;;6.80;99.90;;;;;;5064353;28;20205;-80
2021/03/26 04:13:58;;;;;;;1.08;1.08;;;6.80;99.90;;;;;;5066367;28;20352;-78
2021/03/26 04:16:26;;;;;;;0.50;0.40;;;6.70;99.90;;;;;;5065648;28;20195;-78
2021/03/26 04:18:59;;;;;;;1.08;1.08;;;6.70;99.90;;;;;;5066247;28;20222;-78
2021/03/26 04:21:30;;;;;;;0.50;0.40;;;6.70;99.90;;;;;;5060035;28;20222;-78
2021/03/26 04:24:00;;;;;;;0.70;0.70;;;6.70;99.90;;;;;;5060175;28;20231;-78
2021/03/26 04:26:34;;;;;;;2.45;2.00;;;6.70;99.90;;;;;;5040169;28;20230;-79
2021/03/26 04:29:06;;;;;;;2.03;1.92;;;6.80;99.90;;;;;;5039488;28;20697;-78
2021/03/26 04:31:37;;;;;;;1.85;0.77;;;6.80;99.90;;;;;;5038545;28;20680;-77
2021/03/26 04:34:03;;;;;;;2.65;2.50;;;6.80;99.90;;;;;;5038824;28;20182;-78
2021/03/26 04:36:41;;;;;;;4.10;3.60;;;6.80;99.90;;;;;;5038575;28;20203;-78
2021/03/26 04:39:15;;;;;;;1.58;1.15;;;6.80;99.90;;;;;;5038154;28;20195;-77
2021/03/26 04:41:45;;;;;;;0.93;0.93;;;6.70;99.90;;;;;;5036440;28;20191;-78
2021/03/26 04:44:17;;;;;;;0.60;0.50;;;6.70;99.90;;;;;;5038391;28;20565;-78
2021/03/26 04:46:51;;;;;;;3.50;3.33;;;6.70;99.90;;;;;;5038262;28;20696;-78
2021/03/26 04:49:21;;;;;;;2.72;2.55;;;6.80;99.90;;;;;;5037752;28;20669;-78
2021/03/26 04:51:51;;;;;;;1.02;0.93;;;6.80;99.90;;;;;;5038283;28;20223;-77
2021/03/26 04:54:23;;;;;;;2.25;1.08;;;6.80;99.90;;;;;;5057745;28;20204;-78
2021/03/26 04:56:56;;;;;;;2.13;1.67;;;6.80;99.90;;;;;;5057110;28;20262;-78
2021/03/26 04:59:30;;;;;;;6.47;1.77;;;6.80;99.90;;;;;;5058176;28;20259;-78
2021/03/26 05:02:00;;;;;;;5.57;3.13;;;6.80;99.90;;;;;;5058217;28;20222;-77
2021/03/26 05:04:31;;;;;;;2.20;2.10;;;6.80;99.90;;;;;;5057704;28;20197;-79
2021/03/26 05:07:01;;;;;;;0.70;0.70;;;6.80;99.90;;;;;;5057446;28;20202;-78
2021/03/26 05:09:33;;;;;;;0.50;0.40;;;6.80;99.90;;;;;;5059621;28;20198;-78
2021/03/26 05:12:06;;;;;;;4.20;3.72;;;6.80;99.90;;;;;;5054371;28;20730;-77
2021/03/26 05:14:37;;;;;;;0.50;0.40;;;6.80;99.90;;;;;;5055185;28;20183;-77
2021/03/26 05:17:09;;;;;;;0.50;0.40;;;6.90;99.90;;;;;;5053407;28;20195;-77
2021/03/26 05:19:41;;;;;;;0.50;0.40;;;6.80;99.90;;;;;;5056418;28;20252;-78
2021/03/26 05:22:19;;;;;;;1.88;1.30;;;6.90;99.90;;;;;;5056711;28;20319;-78
2021/03/26 05:24:50;;;;;;;2.25;1.40;;;6.80;99.90;;;;;;5056454;28;20193;-78
2021/03/26 05:27:18;;;;;;;0.50;0.40;;;6.80;99.90;;;;;;5055415;28;20186;-78
2021/03/26 05:29:45;;;;;;;3.22;1.70;;;6.80;99.90;;;;;;5054855;28;20238;-78
2021/03/26 05:32:14;;;;;;;2.58;2.40;;;6.90;99.90;;;;;;5057057;28;20831;-78
2021/03/26 05:34:49;;;;;;;1.30;1.20;;;6.90;99.90;;;;;;5056106;28;20194;-77
2021/03/26 05:37:20;;;;;;;0.82;0.70;;;6.90;99.90;;;;;;5055074;28;20194;-78
2021/03/26 05:39:53;;;;;;;1.70;1.35;;;6.90;99.90;;;;;;5052434;28;20189;-77
2021/03/26 05:42:38;;;;;;;0.70;0.70;;;6.90;99.90;;;;;;5048705;28;20628;-78
2021/03/26 05:45:32;;;;;;;1.80;1.60;;;7.00;99.90;;;;;;5051675;28;20742;-78
2021/03/26 05:48:22;;;;;;;1.88;1.77;;;7.20;99.90;;;;;;5046210;28;20768;-78
2021/03/26 05:51:01;;;;;;;5.13;3.13;;;7.40;99.90;;;;;;5026210;28;20215;-77
2021/03/26 05:53:43;;;;;;;2.13;1.88;;;7.60;99.90;;;;;;5048659;28;20211;-78
2021/03/26 05:56:22;;;;;;;4.07;2.72;;;7.80;99.90;;;;;;5053632;28;20186;-78
2021/03/26 05:58:58;;;;;;;0.90;0.90;;;8.10;99.90;;;;;;5053942;28;20205;-77
2021/03/26 06:01:36;;;;;;;5.53;3.53;;;8.50;99.90;;;;;;5054139;28;20179;-78
2021/03/26 06:04:41;;;;;;;6.63;3.03;;;8.80;99.90;;;;;;5054669;28;20183;-78
2021/03/26 06:07:31;;;;;;;0.73;0.73;;;9.10;99.90;;;;;;5055141;28;20209;-78
2021/03/26 06:10:21;;;;;;;0.60;0.40;;;9.40;99.90;;;;;;5054764;28;20219;-78
2021/03/26 06:13:18;;;;;;;5.22;3.90;;;9.50;99.90;;;;;;5054569;28;20219;-78
2021/03/26 06:16:20;;;;;;;7.10;2.50;;;9.40;99.90;;;;;;5053942;28;20388;-77
2021/03/26 06:18:59;;;;;;;1.65;1.55;;;9.40;99.90;;;;;;5054666;28;20566;-77
2021/03/26 06:21:44;;;;;;;11.93;7.60;;;9.30;99.90;;;;;;5055633;28;20179;-78
2021/03/26 06:24:56;;;;;;;0.50;0.40;;;9.40;99.90;;;;;;5053063;28;20199;-78
2021/03/26 06:27:30;;;;;;;2.35;2.15;;;9.50;99.90;;;;;;5066457;22;20222;-82
2021/03/26 06:30:05;;;;;;;11.43;4.53;;;9.80;99.90;;;;;;5059684;28;20205;-81
2021/03/26 06:33:21;;;;;;;3.83;3.53;;;10.20;99.90;;;;;;5065263;28;20178;-80
2021/03/26 06:36:18;;;;;;;3.20;2.67;;;10.60;99.90;;;;;;5066090;28;20263;-81
2021/03/26 06:39:06;;;;;;;0.50;0.40;;;11.10;99.90;;;;;;5045046;28;20550;-79
2021/03/26 06:41:44;;;;;;;8.35;5.20;;;11.80;99.90;;;;;;5046660;28;20198;-77
2021/03/26 06:44:40;;;;;;;0.60;0.60;;;12.40;99.90;;;;;;5047906;28;20264;-80
2021/03/26 06:47:12;;;;;;;1.70;1.45;;;13.20;99.90;;;;;;5054946;28;20246;-81
2021/03/26 06:49:47;;;;;;;1.85;1.75;;;14.30;99.90;;;;;;5067863;28;20571;-80
2021/03/26 06:52:30;;;;;;;3.63;1.50;;;14.60;99.90;;;;;;5067697;28;20966;-81
2021/03/26 06:55:23;;;;;;;3.13;1.45;;;15.00;99.90;;;;;;5067723;28;20731;-81
2021/03/26 06:58:37;;;;;;;3.67;3.15;;;15.30;99.90;;;;;;5060232;28;20217;-80
2021/03/26 07:01:31;;;;;;;3.33;2.33;;;15.60;99.90;;;;;;5062046;28;20726;-81
2021/03/26 07:04:34;;;;;;;0.90;0.73;;;16.20;99.90;;;;;;5067900;28;20425;-80
2021/03/26 07:07:25;;;;;;;8.10;5.27;;;16.30;99.90;;;;;;5048729;28;21046;-81
2021/03/26 07:10:28;;;;;;;3.73;2.73;;;16.20;99.90;;;;;;5067459;28;20433;-79
2021/03/26 07:13:19;;;;;;;0.73;0.73;;;16.00;99.90;;;;;;5067785;28;20456;-81
2021/03/26 07:15:54;;;;;;;7.25;4.30;;;15.70;99.90;;;;;;5068171;28;20456;-77
2021/03/26 07:18:44;;;;;;;1.37;1.00;;;15.30;99.90;;;;;;5069851;28;20218;-80
2021/03/26 07:21:19;;;;;;;2.00;1.27;;;15.20;99.90;;;;;;5069254;28;20464;-81
2021/03/26 07:24:09;;;;;;;8.98;4.95;;;15.00;99.90;;;;;;5068519;28;20431;-80
2021/03/26 07:26:48;;;;;;;0.98;0.88;;;14.90;99.90;;;;;;5065675;28;20214;-80
2021/03/26 07:29:33;;;;;;;6.93;6.28;;;14.60;99.90;;;;;;5056350;28;20676;-80
2021/03/26 07:32:28;;;;;;;4.00;1.60;;;14.20;99.90;;;;;;5061081;28;20198;-80
2021/03/26 07:35:20;;;;;;;2.35;1.95;;;14.20;99.90;;;;;;5068470;28;20201;-80
2021/03/26 07:38:05;;;;;;;2.90;2.70;;;14.00;99.90;;;;;;5065019;28;20215;-80
2021/03/26 07:40:41;;;;;;;1.38;1.27;;;13.40;99.90;;;;;;5065679;28;20186;-80
2021/03/26 07:43:25;;;;;;;10.65;4.43;;;13.00;99.90;;;;;;5067965;28;20202;-82
2021/03/26 07:46:24;;;;;;;0.82;0.82;;;12.90;99.90;;;;;;5067115;28;20174;-80
2021/03/26 07:49:36;;;;;;;3.80;2.35;;;12.80;99.90;;;;;;5067442;28;20190;-80
2021/03/26 07:52:11;;;;;;;5.72;5.22;;;12.70;99.90;;;;;;5037330;28;20244;-80
2021/03/26 07:55:01;;;;;;;6.90;4.70;;;12.80;99.90;;;;;;5066991;28;20230;-80
2021/03/26 07:57:44;;;;;;;11.48;5.57;;;12.60;99.90;;;;;;5057198;28;20215;-80
2021/03/26 08:00:37;;;;;;;1.15;1.15;;;12.40;99.90;;;;;;5046726;28;20201;-81
2021/03/26 08:03:32;;;;;;;6.15;4.50;;;12.20;99.90;;;;;;5046516;28;20199;-81
2021/03/26 08:06:16;;;;;;;0.90;0.90;;;12.20;99.90;;;;;;5044979;28;20207;-81
2021/03/26 08:09:13;;;;;;;1.00;0.93;;;12.10;99.90;;;;;;5046518;28;20210;-81
2021/03/26 08:11:52;;;;;;;6.57;2.72;;;12.40;99.90;;;;;;5045865;28;20208;-80
2021/03/26 08:14:54;;;;;;;2.85;2.60;;;12.40;99.90;;;;;;5047253;28;20260;-80
2021/03/26 08:17:37;;;;;;;4.25;3.78;;;12.50;99.90;;;;;;5046072;28;20309;-81
2021/03/26 08:20:20;;;;;;;14.38;2.90;;;12.90;99.90;;;;;;5028946;28;20285;-79
2021/03/26 08:23:00;;;;;;;5.72;3.33;;;13.50;99.90;;;;;;5047188;28;20202;-80
2021/03/26 08:25:43;;;;;;;2.42;2.22;;;14.10;99.90;;;;;;5046977;28;20199;-77
2021/03/26 08:28:31;;;;;;;9.07;5.93;;;14.10;99.90;;;;;;5044034;28;20237;-79
2021/03/26 08:31:12;;;;;;;4.47;4.13;;;14.00;99.90;;;;;;5046432;28;20245;-80
2021/03/26 08:33:53;;;;;;;2.55;2.30;;;13.90;99.90;;;;;;5046839;28;20184;-81
2021/03/26 08:36:42;;;;;;;2.75;2.15;;;13.60;99.90;;;;;;5045368;28;20179;-80
2021/03/26 08:39:39;;;;;;;4.38;2.83;;;13.50;99.90;;;;;;5047702;28;20262;-81
2021/03/26 08:42:15;;;;;;;6.47;4.53;;;13.60;99.90;;;;;;5047195;28;20239;-80
2021/03/26 08:44:47;;;;;;;2.05;1.85;;;13.80;99.90;;;;;;5046747;28;20282;-80
2021/03/26 08:47:22;;;;;;;7.32;4.38;;;14.00;99.90;;;;;;5046767;28;20227;-79
2021/03/26 08:50:10;;;;;;;3.27;2.73;;;14.30;99.90;;;;;;5047316;28;20176;-81
2021/03/26 08:52:52;;;;;;;4.47;3.63;;;15.20;99.90;;;;;;5047621;28;20422;-81
2021/03/26 08:55:34;;;;;;;1.60;1.17;;;15.80;99.90;;;;;;5047394;28;20443;-82
2021/03/26 08:58:16;;;;;;;14.67;9.60;;;16.30;99.90;;;;;;5045695;28;20462;-81
2021/03/26 09:01:20;;;;;;;9.77;6.00;;;16.30;99.90;;;;;;5043182;28;20434;-78
2021/03/26 09:04:00;;;;;;;3.17;1.50;;;15.40;99.90;;;;;;5038853;28;20490;-79
2021/03/26 09:06:36;;;;;;;3.83;2.43;;;15.50;99.90;;;;;;5038489;28;20465;-81
2021/03/26 09:09:23;;;;;;;7.40;4.27;;;16.20;99.90;;;;;;5039804;28;20537;-80
2021/03/26 09:12:07;;;;;;;3.53;2.73;;;16.70;99.90;;;;;;5040411;28;20473;-81
2021/03/26 09:15:08;;;;;;;4.10;2.37;;;16.60;99.90;;;;;;5040722;28;20431;-79
2021/03/26 09:17:41;;;;;;;6.83;5.30;;;16.40;99.90;;;;;;5040682;28;20467;-80
2021/03/26 09:20:19;;;;;;;1.10;1.03;;;16.00;99.90;;;;;;5043258;28;20434;-80
2021/03/26 09:23:19;;;;;;;11.30;5.60;;;16.20;99.90;;;;;;5041363;28;20449;-80
2021/03/26 09:25:48;;;;;;;3.47;3.20;;;16.30;99.90;;;;;;5041793;28;20495;-77
2021/03/26 09:28:25;;;;;;;1.13;1.03;;;16.40;99.90;;;;;;5040918;28;20462;-80
2021/03/26 09:30:59;;;;;;;8.90;5.03;;;17.40;99.90;;;;;;5040825;28;21049;-80
2021/03/26 09:33:26;;;;;;;5.53;4.37;;;18.40;99.90;;;;;;5041562;28;20429;-80
2021/03/26 09:35:56;;;;;;;3.33;2.60;;;17.50;99.90;;;;;;5041888;28;20495;-80
2021/03/26 09:38:28;;;;;;;1.17;1.10;;;17.20;99.90;;;;;;5043580;28;21002;-80
2021/03/26 09:41:12;;;;;;;6.20;3.10;;;17.10;99.90;;;;;;5041976;28;20426;-81
2021/03/26 09:43:47;;;;;;;4.83;4.10;;;16.60;99.90;;;;;;5034998;28;20443;-75
2021/03/26 09:46:18;;;;;;;0.90;0.90;;;17.10;99.90;;;;;;5033073;28;20428;-77
2021/03/26 09:49:07;;;;;;;0.93;0.93;;;16.90;99.90;;;;;;5033979;28;20442;-78
2021/03/26 09:51:50;;;;;;;15.13;2.60;;;18.20;99.90;;;;;;5032980;28;20474;-78
2021/03/26 09:54:34;;;;;;;3.47;3.17;;;19.10;99.90;;;;;;5033159;28;20519;-79
2021/03/26 09:57:18;;;;;;;3.30;1.43;;;19.40;99.90;;;;;;5032506;28;20480;-78
2021/03/26 09:59:55;;;;;;;7.93;2.90;;;19.00;97.90;;;;;;5031854;28;20514;-78
2021/03/26 10:02:35;;;;;;;6.97;2.60;;;18.30;99.80;;;;;;5032676;28;20458;-77
2021/03/26 10:05:12;;;;;;;5.33;2.80;;;18.10;99.90;;;;;;5032428;28;20445;-77
2021/03/26 10:07:45;;;;;;;2.77;2.10;;;17.00;99.90;;;;;;5032206;28;20501;-78
2021/03/26 10:13:15;;;;;;;1.00;1.00;;;17.30;99.90;;;;;;5033142;28;20472;-78
2021/03/26 10:15:44;;;;;;;3.53;1.17;;;17.50;99.90;;;;;;5037263;28;20430;-78
2021/03/26 10:18:15;;;;;;;5.70;3.70;;;17.70;99.90;;;;;;5039211;28;20492;-78
2021/03/26 10:20:48;;;;;;;4.00;2.73;;;17.50;99.90;;;;;;5039925;28;20819;-78
2021/03/26 10:23:34;;;;;;;1.67;1.57;;;17.30;99.90;;;;;;5039336;28;20433;-77
2021/03/26 10:26:06;;;;;;;1.33;1.23;;;17.40;99.90;;;;;;5038185;28;20946;-77
2021/03/26 10:29:12;;;;;;;4.90;2.50;;;17.40;99.90;;;;;;5039048;28;20471;-76
2021/03/26 10:31:40;;;;;;;1.97;1.83;;;16.80;99.90;;;;;;5019195;28;20494;-78
2021/03/26 10:34:09;;;;;;;2.83;2.57;;;15.60;99.90;;;;;;5019650;28;20435;-76
2021/03/26 10:36:44;;;;;;;5.97;3.10;;;15.40;99.90;;;;;;5019063;28;20471;-77
2021/03/26 10:39:15;;;;;;;3.17;2.90;;;15.50;99.90;;;;;;5019499;28;20442;-77
2021/03/26 10:41:54;;;;;;;2.53;2.33;;;15.10;99.90;;;;;;5016884;28;20470;-76
2021/03/26 10:44:28;;;;;;;1.50;1.40;;;15.10;99.90;;;;;;5019788;28;20449;-76
2021/03/26 10:47:04;;;;;;;0.97;0.70;;;15.40;99.90;;;;;;5018834;28;20474;-77
2021/03/26 10:49:38;;;;;;;3.27;1.87;;;16.20;99.90;;;;;;5019638;28;20430;-76
2021/03/26 10:52:09;;;;;;;4.17;3.80;;;16.10;99.90;;;;;;5019538;28;20565;-78
2021/03/26 10:54:45;;;;;;;9.03;5.53;;;16.20;99.90;;;;;;5019655;28;20421;-77
2021/03/26 10:57:20;;;;;;;1.13;0.93;;;17.10;99.90;;;;;;5025212;28;20461;-78
2021/03/26 10:59:59;;;;;;;4.20;1.80;;;17.80;99.90;;;;;;5039929;28;20506;-77
2021/03/26 11:02:42;;;;;;;19.83;3.17;;;18.30;98.30;;;;;;5039251;28;20446;-77
2021/03/26 11:05:24;;;;;;;6.47;3.43;;;17.10;99.90;;;;;;5031310;28;20456;-77
2021/03/26 11:08:16;;;;;;;2.60;2.17;;;15.90;99.90;;;;;;5038241;28;20870;-76
2021/03/26 11:10:51;;;;;;;3.87;3.47;;;15.30;99.90;;;;;;5040081;28;20450;-77
2021/03/26 11:13:28;;;;;;;3.13;2.20;;;15.10;99.90;;;;;;5039158;28;20449;-77
2021/03/26 11:15:58;;;;;;;3.87;2.20;;;16.00;99.90;;;;;;5038327;28;20418;-77
2021/03/26 11:18:30;;;;;;;3.30;2.33;;;17.00;99.90;;;;;;5038825;28;20473;-76
2021/03/26 11:21:00;;;;;;;1.90;0.63;;;17.70;99.90;;;;;;5039283;28;20428;-77
2021/03/26 11:23:29;;;;;;;1.37;1.17;;;18.00;98.00;;;;;;5039460;28;20455;-77
2021/03/26 11:26:11;;;;;;;1.97;1.23;;;17.10;98.30;;;;;;5038102;28;20539;-77
2021/03/26 11:28:42;;;;;;;3.63;2.20;;;16.50;99.90;;;;;;5027258;28;20468;-77
2021/03/26 11:31:20;;;;;;;6.60;2.63;;;16.70;99.90;;;;;;5036150;28;20896;-76
2021/03/26 11:34:10;;;;;;;3.20;1.80;;;16.60;99.90;;;;;;5035629;28;20469;-77
2021/03/26 11:36:52;;;;;;;1.17;1.07;;;16.40;99.90;;;;;;5029625;28;20527;-77
2021/03/26 11:39:26;;;;;;;0.50;0.30;;;16.90;99.30;;;;;;5037120;28;20418;-74
2021/03/26 11:41:58;;;;;;;2.00;1.10;;;17.10;98.50;;;;;;5033948;28;20958;-77
2021/03/26 11:44:28;;;;;;;4.87;2.40;;;17.10;97.40;;;;;;5035762;28;20418;-78
2021/03/26 11:46:58;;;;;;;2.30;1.80;;;17.50;97.40;;;;;;5035877;28;20460;-78
2021/03/26 11:49:28;;;;;;;0.50;0.30;;;18.20;94.40;;;;;;5036194;28;20417;-78
2021/03/26 11:52:01;;;;;;;1.33;1.20;;;19.20;93.30;;;;;;5036246;28;20805;-79
2021/03/26 11:54:38;;;;;;;0.60;0.57;;;20.60;90.50;;;;;;5035455;28;20797;-75
2021/03/26 11:57:09;;;;;;;2.03;1.00;;;20.30;84.40;;;;;;5033863;28;21029;-77
2021/03/26 11:59:56;;;;;;;3.77;1.67;;;19.10;85.40;;;;;;5030998;28;20521;-77
2021/03/26 12:02:41;;;;;;;2.67;2.20;;;18.30;89.20;;;;;;5034937;28;21072;-78
2021/03/26 12:05:17;;;;;;;0.97;0.90;;;18.00;90.90;;;;;;5035326;28;20426;-78
2021/03/26 12:07:52;;;;;;;3.00;1.57;;;17.90;91.20;;;;;;5034882;28;20469;-78
2021/03/26 12:10:28;;;;;;;0.97;0.97;;;17.30;91.40;;;;;;5035524;28;20903;-77
2021/03/26 12:13:04;;;;;;;6.43;1.83;;;17.80;92.20;;;;;;5034922;28;20535;-78
2021/03/26 12:15:35;;;;;;;2.70;2.50;;;17.20;91.90;;;;;;5035086;28;20449;-76
2021/03/26 12:18:07;;;;;;;0.70;0.70;;;17.30;92.60;;;;;;5034531;28;20820;-78
2021/03/26 12:20:37;;;;;;;0.80;0.80;;;17.60;91.90;;;;;;5035908;28;20479;-77
2021/03/26 12:23:17;;;;;;;0.50;0.30;;;18.00;91.30;;;;;;5035189;28;20510;-77
2021/03/26 12:25:50;;;;;;;0.70;0.70;;;18.30;90.70;;;;;;5034156;28;20819;-77
2021/03/26 12:28:25;;;;;;;9.20;1.73;;;18.00;90.60;;;;;;5073473;23;20504;-77
2021/03/26 12:30:55;;;;;;;1.07;0.93;;;17.50;91.70;;;;;;5040692;28;20471;-78
2021/03/26 12:33:28;;;;;;;0.87;0.87;;;17.10;93.70;;;;;;5057737;28;20452;-78
2021/03/26 12:35:58;;;;;;;0.90;0.90;;;17.20;93.30;;;;;;5059432;28;20472;-80
2021/03/26 12:38:33;;;;;;;1.77;1.60;;;17.50;93.60;;;;;;5063308;28;20512;-78
2021/03/26 12:41:06;;;;;;;1.47;0.60;;;17.40;93.30;;;;;;5057439;28;21112;-78
2021/03/26 12:43:44;;;;;;;1.27;1.17;;;17.40;93.80;;;;;;5057498;28;20455;-77
2021/03/26 12:46:20;;;;;;;1.00;0.90;;;17.80;93.40;;;;;;5055076;28;20424;-79
2021/03/26 12:48:49;;;;;;;0.60;0.50;;;17.70;92.70;;;;;;5058347;28;20460;-77
2021/03/26 12:51:23;;;;;;;0.50;0.40;;;17.70;93.20;;;;;;5057651;28;20472;-78
2021/03/26 12:53:56;;;;;;;1.50;1.40;;;17.80;91.80;;;;;;5057059;28;20498;-78
2021/03/26 12:56:28;;;;;;;0.60;0.60;;;17.60;92.80;;;;;;5057640;28;20419;-77
2021/03/26 12:59:18;;;;;;;1.03;0.67;;;18.30;92.40;;;;;;5056938;28;20548;-78
2021/03/26 13:01:50;;;;;;;1.87;1.77;;;19.10;91.10;;;;;;5048074;28;20784;-78
2021/03/26 13:04:33;;;;;;;1.77;0.70;;;19.50;89.90;;;;;;5057875;28;20422;-78
2021/03/26 13:07:04;;;;;;;6.10;2.97;;;19.70;87.70;;;;;;5055058;28;20537;-78
2021/03/26 13:09:36;;;;;;;5.83;2.33;;;19.20;88.10;;;;;;5057400;28;20461;-78
2021/03/26 13:12:09;;;;;;;2.20;1.60;;;19.10;85.60;;;;;;5057795;28;20461;-78
2021/03/26 13:14:43;;;;;;;2.60;1.47;;;18.00;89.60;;;;;;5060029;28;20441;-79
2021/03/26 13:17:17;;;;;;;1.73;0.70;;;17.60;90.90;;;;;;5061947;28;20474;-79
2021/03/26 13:19:44;;;;;;;2.30;1.57;;;17.40;91.50;;;;;;5063462;28;20469;-79
2021/03/26 13:22:22;;;;;;;1.67;1.20;;;16.90;91.70;;;;;;5059717;28;20497;-79
2021/03/26 13:25:05;;;;;;;2.00;1.23;;;16.70;93.30;;;;;;5058845;28;20437;-77
2021/03/26 13:27:44;;;;;;;14.20;1.70;;;16.70;93.90;;;;;;5061044;28;20420;-78
2021/03/26 13:30:26;;;;;;;9.70;1.97;;;16.80;93.80;;;;;;5061237;28;20454;-79
2021/03/26 13:33:28;;;;;;;1.33;1.20;;;16.90;93.60;;;;;;5059032;28;20406;-79
2021/03/26 13:36:01;;;;;;;1.50;1.40;;;17.00;93.20;;;;;;5061868;28;20451;-81
2021/03/26 13:38:55;;;;;;;3.10;2.17;;;17.20;93.90;;;;;;5066872;28;20461;-80
2021/03/26 13:41:41;;;;;;;2.43;2.17;;;18.20;91.50;;;;;;5059975;28;20424;-80